Tiempo atmosférico en la estación meteorológica de Viso Del Marqués, Ciudad Real (778 m.)



Fecha
DESCASC
Temp. máxima en grados centígrados (hora)
DESCASC
Temp. mínima en grados centígrados (hora)
DESCASC
Temp. media en grados centígrados
DESCASC
Racha de viento máxima en m/sg (hora)
DESCASC
Velocidad máxima media en intervalos de 10 minutos(hora)
DESCASC
Precipitaciones diarias en mm
DESCASC
Precipitaciones de 00:00 a 06:00 en mm
DESCASC
Precipitaciones de 06:00 a 12:00 en mm
DESCASC
Precipitaciones de 12:00 a 18:00 en mm
DESCASC
Precipitaciones de 18:00 a 24:00 en mm
DESCASC
17-09-2020 28.6 (17:50) 18.7 (06:50) 23.7 15 (14:40) 10.28 (14:50) 1.1 0.2 0 0 0.9
16-09-2020 32.2 (16:00) 17.7 (08:10) 25 11.11 (15:00) 6.67 (23:20) 0 0 0 0 0
15-09-2020 30.9 (16:30) 18.2 (08:20) 24.6 8.89 (16:30) 5.56 (17:20) 0 0 0 0 0
14-09-2020 32.1 (14:40) 18.2 (00:00) 25.1 10 (15:20) 5.56 (16:10) 0 0 0 0 0
13-09-2020 34.3 (15:30) 18.9 (00:00) 26.6 9.72 (02:10) 7.5 (02:00) 0 0 0 0 0
12-09-2020 34.2 (17:30) 17.9 (00:00) 26.1 7.78 (15:20) 4.72 (23:30) 0 0 0 0 0
11-09-2020 32.6 (17:20) 16.6 (00:00) 24.6 7.22 (15:10) 3.61 (16:10) 0 0 0 0 0
10-09-2020 31.5 (17:00) 14.7 (00:00) 23.1 11.39 (17:50) 3.89 (16:00) 0 0 0 0 0
09-09-2020 28.7 (16:30) 15.5 (00:00) 22.1 8.06 (00:10) 5.56 (00:10) 0 0 0 0 0
08-09-2020 29.1 (16:10) 11.7 (00:00) 20.4 9.17 (22:30) 5.83 (22:40) 0 0 0 0 0
07-09-2020 29.2 (16:50) 18.8 (06:30) 24 9.17 (17:00) 6.11 (17:00) 0 0 0 0 0
06-09-2020 33.8 (17:10) 18.9 (00:00) 26.3 7.22 (04:00) 4.44 (17:20) 0 0 0 0 0
05-09-2020 33.3 (15:50) 17.1 (00:00) 25.2 7.78 (01:20) 5.83 (01:20) 0 0 0 0 0
04-09-2020 32.5 (17:50) 17.6 (00:00) 25.1 6.11 (04:20) 5 (04:00) 0 0 0 0 0
03-09-2020 32.3 (17:20) 15.7 (00:00) 24 7.22 (23:10) 5.28 (23:10) 0 0 0 0 0
02-09-2020 30.5 (16:10) 14.7 (00:00) 22.6 7.22 (20:00) 4.44 (20:10) 0 0 0 0 0
01-09-2020 28.9 (17:00) 14.2 (00:00) 21.5 7.22 (15:00) 4.72 (20:30) 0 0 0 0 0
31-08-2020 -- (--) -- (--) -- 6.11 (14:00) 3.06 (18:50) 0 0 0 0 0
30-08-2020 -- (--) -- (--) -- 12.5 (16:10) 4.72 (20:40) 0 0 0 0 0
29-08-2020 -- (--) -- (--) -- 10.83 (18:40) 5.83 (12:50) 0 0 0 0 0
28-08-2020 -- (--) -- (--) -- 12.22 (16:40) 7.22 (17:00) 0 0 0 0 0
27-08-2020 -- (--) -- (--) -- 10.56 (19:00) 6.67 (19:40) 0 0 0 0 0
26-08-2020 -- (--) -- (--) -- 8.89 (19:00) 3.61 (17:20) 0 0 0 0 0
25-08-2020 -- (--) -- (--) -- 10 (13:10) 4.72 (20:10) 0 0 0 0 0
24-08-2020 -- (--) -- (--) -- 9.17 (15:30) 3.61 (00:10) 0 0 0 0 0
23-08-2020 -- (--) -- (--) -- 7.22 (18:30) 3.61 (23:30) 0 0 0 0 0
22-08-2020 -- (--) -- (--) -- 14.44 (14:10) 3.89 (20:00) 0 0 0 0 0
21-08-2020 -- (--) -- (--) -- 12.78 (14:50) 6.39 (17:40) 0 0 0 0 0
20-08-2020 -- (--) -- (--) -- 11.94 (18:00) 8.06 (18:30) 0 0 0 0 0
19-08-2020 -- (--) -- (--) -- 10.28 (17:40) 6.94 (17:40) 0 0 0 0 0

Gráficas

Temp. máximas Temp. mínimas Temp. medias Precipitaciones Rachas de viento máximas Velocidades máximas media en intervalos de 10 minutos

Datos horarios

Fecha y hora oficial Temperatura (ºC) Velocidad del viento (km/h) Dirección del viento Racha (km/h) Dirección de racha Precipitación (mm) Presión (hPa) Tendencia (hPa) Humedad (%)
2020-09-17 23:00:00 20.9 21 Sudoeste 46 Sur 0 923.4 -- 63
2020-09-17 22:00:00 20.2 15 Sudoeste 23 Sudoeste 0 923.2 -- 78
2020-09-17 21:00:00 19.6 7 Sudoeste 15 Sudoeste 0 922.5 -- 88
2020-09-17 20:00:00 20 13 Sudoeste 29 Sudoeste 0.7 922.5 -- 86
2020-09-17 19:00:00 20.6 21 Sudoeste 49 Sudoeste 0.2 923.3 -- 74
2020-09-17 18:00:00 28 19 Sudoeste 37 Sudoeste 0 922.2 -- 43
2020-09-17 17:00:00 27.2 24 Sudoeste 37 Sudoeste 0 923 -- 44
2020-09-17 16:00:00 26.7 29 Sudoeste 46 Sudoeste 0 923.7 -- 46
2020-09-17 15:00:00 26.3 37 Sudoeste 54 Sudoeste 0 924 -- 48
2020-09-17 14:00:00 26.9 26 Sudoeste 49 Sudoeste 0 924.4 -- 48
2020-09-17 13:00:00 24 9 Sudoeste 27 Sudoeste 0 924.9 -- 55
2020-09-17 12:00:00 23.1 16 Sudoeste 24 Sudoeste 0 925.3 -- 60
2020-09-17 11:00:00 22.3 14 Sudoeste 20 Sudoeste 0 925.1 -- 62
2020-09-17 10:00:00 21.9 16 Sudoeste 26 Sudoeste 0 924.8 -- 65
2020-09-17 09:00:00 19.9 6 Sudoeste 10 Sudoeste 0 924.7 -- 71
2020-09-17 08:00:00 19 7 Sudoeste 13 Sudoeste 0 924.3 -- 73
2020-09-17 07:00:00 18.8 12 Sudoeste 16 Sudoeste 0 924 -- 75
2020-09-17 06:00:00 19.2 12 Sudoeste 17 Sudoeste 0 924.2 -- 77
2020-09-17 05:00:00 19.1 11 Sudoeste 17 Sudoeste 0 924.3 -- 77
2020-09-17 04:00:00 19.3 12 Sudoeste 18 Sudoeste 0 924.9 -- 82
2020-09-17 03:00:00 19.5 10 Sudoeste 22 Sudoeste 0 925.5 -- 82
2020-09-17 02:00:00 20.7 5 Sudoeste 27 Sudoeste 0.2 926 -- 73
2020-09-17 01:00:00 22.4 18 Sudoeste 28 Sudoeste 0 926.9 -- 58
2020-09-17 00:00:00 21.9 10 Sudoeste 36 Sudoeste 0 926.1 -- 61
2020-09-16 23:00:00 24.8 14 Sudoeste 21 Sudoeste 0 925.9 -- 45
2020-09-16 22:00:00 25.4 6 Sudoeste 24 Sudoeste 0 925.6 -- 45
2020-09-16 21:00:00 26.3 13 Sudoeste 17 Sudoeste 0 924.8 -- 43
2020-09-16 20:00:00 27.6 12 Sudoeste 15 Sudoeste 0 924.5 -- 41
2020-09-16 19:00:00 28.6 9 Sudoeste 18 Sudoeste 0 924.6 -- 37
2020-09-16 18:00:00 29.3 9 Sudoeste 23 Sudoeste 0 924.7 -- 36
2020-09-16 17:00:00 29.3 15 Sudoeste 24 Sudoeste 0 925.2 -- 37
2020-09-16 16:00:00 30.5 17 Sudoeste 31 Sudoeste 0 925.8 -- 37
2020-09-16 15:00:00 30 18 Sudoeste 40 Sudoeste 0 926.6 -- 39
2020-09-16 14:00:00 28.8 12 Sudoeste 23 Sudoeste 0 927.4 -- 42
2020-09-16 13:00:00 29 8 Sudoeste 23 Sudoeste 0 928 -- 46
2020-09-16 12:00:00 27.3 9 Sudoeste 19 Sudoeste 0 928.5 -- 49
2020-09-16 11:00:00 25.6 10 Sudoeste 16 Sudoeste 0 928.4 -- 52
2020-09-16 10:00:00 22.4 7 Sudoeste 12 Sudoeste 0 928.6 -- 60
2020-09-16 09:00:00 18.6 5 Sudoeste 13 Sudoeste 0 928.4 -- 66
2020-09-16 08:00:00 17.9 6 Sudoeste 11 Sudoeste 0 928.4 -- 66
2020-09-16 07:00:00 18.5 5 Sudoeste 7 Sudoeste 0 928.6 -- 64
2020-09-16 06:00:00 19.3 0 Calma 6 Sudoeste 0 928.5 -- 62
2020-09-16 05:00:00 19.9 0 Calma 5 Sudoeste 0 928.7 -- 60
2020-09-16 04:00:00 20.5 0 Calma 6 Sudoeste 0 928.9 -- 58
2020-09-16 03:00:00 21.1 3 Sudoeste 5 Sudoeste 0 929.2 -- 56
2020-09-16 02:00:00 21 3 Sudoeste 8 Sudoeste 0 929.6 -- 56
2020-09-16 01:00:00 21.3 6 Sudoeste 11 Sudoeste 0 929.2 -- 55
2020-09-16 00:00:00 22.5 6 Sudoeste 10 Sudoeste 0 929.5 -- 53
2020-09-15 23:00:00 22.5 6 Sudoeste 13 Sudoeste 0 929.3 -- 51
2020-09-15 22:00:00 23.2 13 Sudoeste 17 Sudoeste 0 929.1 -- 49
2020-09-15 21:00:00 24.2 10 Sudoeste 17 Sudoeste 0 928.4 -- 43
2020-09-15 20:00:00 26.8 12 Sudoeste 19 Sudoeste 0 928.3 -- 41
2020-09-15 19:00:00 28.7 13 Sudoeste 25 Sudoeste 0 928.5 -- 39
2020-09-15 18:00:00 30 13 Sudoeste 27 Sudoeste 0 928.5 -- 39
2020-09-15 17:00:00 29.6 7 Sudoeste 32 Sudoeste 0 928.7 -- 41
2020-09-15 16:00:00 29.4 8 Sudoeste 24 Sudoeste 0 929.2 -- 42
2020-09-15 15:00:00 29.3 15 Sudoeste 27 Sudoeste 0 929.8 -- 43
2020-09-15 14:00:00 27.4 9 Sudoeste 21 Sudoeste 0 930.5 -- 51
2020-09-15 13:00:00 26.6 5 Sudoeste 19 Sudoeste 0 931.1 -- 56
2020-09-15 12:00:00 24.6 5 Sudoeste 14 Sudoeste 0 931.5 -- 64
2020-09-15 11:00:00 23.4 4 Sudoeste 10 Sudoeste 0 931.6 -- 68
2020-09-15 10:00:00 21.4 0 Calma 5 Sudoeste 0 931.2 -- 71
2020-09-15 09:00:00 19.4 3 Sudoeste 6 Sudoeste 0 930.8 -- 76
2020-09-15 08:00:00 18.4 3 Sudoeste 8 Sudoeste 0 930.3 -- 77
2020-09-15 07:00:00 19.1 4 Sudoeste 8 Sudoeste 0 930.1 -- 70
2020-09-15 06:00:00 18.9 0 Calma 4 Sudoeste 0 929.8 -- 66
2020-09-15 05:00:00 19.8 0 Calma 5 Sudoeste 0 930 -- 64
2020-09-15 04:00:00 19.6 2 Sudoeste 7 Sudoeste 0 930.2 -- 63
2020-09-15 03:00:00 20.3 0 Calma 14 Sudoeste 0 930.4 -- 60
2020-09-15 02:00:00 20.6 13 Sudoeste 19 Sudoeste 0 930.2 -- 58
2020-09-15 01:00:00 20.5 12 Sudoeste 20 Sudoeste 0 930 -- 60
2020-09-15 00:00:00 20.3 11 Sudoeste 13 Sudoeste 0 929.8 -- 60
2020-09-14 23:00:00 21.5 5 Sudoeste 8 Sudoeste 0 929.5 -- 49
2020-09-14 22:00:00 24.1 2 Sudoeste 6 Sudoeste 0 928.9 -- 46
2020-09-14 21:00:00 25.3 3 Sudoeste 10 Sudoeste 0 928.3 -- 43
2020-09-14 20:00:00 27.3 5 Sudoeste 12 Sudoeste 0 928.2 -- 39
2020-09-14 19:00:00 27.3 4 Sudoeste 17 Sudoeste 0 928.2 -- 41
2020-09-14 18:00:00 27.3 9 Sudoeste 27 Sudoeste 0 929.1 -- 39
2020-09-14 17:00:00 29 16 Sudoeste 30 Sudoeste 0 929.1 -- 36
2020-09-14 16:00:00 30.2 15 Sudoeste 36 Sudoeste 0 929.3 -- 36
2020-09-14 15:00:00 30.2 16 Sudoeste 31 Sudoeste 0 929.8 -- 35
2020-09-14 14:00:00 30.6 15 Sudoeste 30 Sudoeste 0 930 -- 35
2020-09-14 13:00:00 29.7 16 Sudoeste 29 Sudoeste 0 930.7 -- 37
2020-09-14 12:00:00 28 18 Sudoeste 28 Sudoeste 0 930.8 -- 40
2020-09-14 11:00:00 26.4 12 Sudoeste 18 Sudoeste 0 930.7 -- 47
2020-09-14 10:00:00 23.4 14 Sudoeste 17 Sudoeste 0 930.2 -- 52
2020-09-14 09:00:00 19.8 3 Sudoeste 8 Sudoeste 0 930.4 -- 61
2020-09-14 08:00:00 18.4 5 Sudoeste 9 Sudoeste 0 929.8 -- 62
2020-09-14 07:00:00 19 4 Sudoeste 9 Sudoeste 0 929.6 -- 60
2020-09-14 06:00:00 19.4 6 Sudoeste 12 Sudoeste 0 929.3 -- 57
2020-09-14 05:00:00 20.5 6 Sudoeste 13 Sudoeste 0 929.7 -- 53
2020-09-14 04:00:00 20.9 8 Sudoeste 21 Sudoeste 0 930 -- 53
2020-09-14 03:00:00 22.4 19 Sudoeste 28 Sudoeste 0 930.5 -- 50
2020-09-14 02:00:00 22.6 14 Sudoeste 23 Sudoeste 0 931.1 -- 53
2020-09-14 01:00:00 22.6 16 Sudoeste 25 Sudoeste 0 930.7 -- 53
2020-09-14 00:00:00 23 12 Sudoeste 20 Sudoeste 0 930.8 -- 49
2020-09-13 23:00:00 24.7 16 Sudoeste 22 Sudoeste 0 930.5 -- 45
2020-09-13 22:00:00 25.7 13 Sudoeste 21 Sudoeste 0 930 -- 40
2020-09-13 21:00:00 27.8 11 Sudoeste 21 Sudoeste 0 929.4 -- 37
2020-09-13 20:00:00 29.4 16 Sudoeste 24 Sudoeste 0 929 -- 35
2020-09-13 19:00:00 31.9 13 Sudoeste 27 Sudoeste 0 929 -- 33
2020-09-13 18:00:00 31.9 8 Sudoeste 26 Sudoeste 0 928.7 -- 32
2020-09-13 17:00:00 32 19 Sudoeste 33 Sudoeste 0 929.1 -- 31
2020-09-13 16:00:00 33 8 Sudoeste 26 Sudoeste 0 929.4 -- 31
2020-09-13 15:00:00 32.2 5 Sudoeste 20 Sudoeste 0 930 -- 31
2020-09-13 14:00:00 32.1 10 Sudoeste 19 Sudoeste 0 930.3 -- 32
2020-09-13 13:00:00 30.6 9 Sudoeste 16 Sudoeste 0 930.7 -- 34
2020-09-13 12:00:00 28.3 6 Sudoeste 16 Sudoeste 0 930.9 -- 38
2020-09-13 11:00:00 27.7 5 Sudoeste 13 Sudoeste 0 930.7 -- 40
2020-09-13 10:00:00 24.6 5 Sudoeste 10 Sudoeste 0 930.5 -- 45
2020-09-13 09:00:00 21.4 6 Sudoeste 12 Sudoeste 0 930.1 -- 50
2020-09-13 08:00:00 19.7 6 Sudoeste 11 Sudoeste 0 929.5 -- 51
2020-09-13 07:00:00 19.1 6 Sudoeste 16 Sudoeste 0 929.2 -- 50
2020-09-13 06:00:00 21.6 6 Sudoeste 20 Sudoeste 0 928.6 -- 47
2020-09-13 05:00:00 22.6 9 Sudoeste 19 Sudoeste 0 928.5 -- 46
2020-09-13 04:00:00 21.7 13 Sudoeste 21 Sudoeste 0 928.5 -- 47
2020-09-13 03:00:00 23.3 18 Sudoeste 35 Sudoeste 0 928.5 -- 43
2020-09-13 02:00:00 24.6 27 Sudoeste 34 Sudoeste 0 928.3 -- 41
2020-09-13 01:00:00 24.9 18 Sudoeste 32 Sudoeste 0 928.2 -- 40
2020-09-13 00:00:00 24.9 14 Sudoeste 23 Sudoeste 0 928.1 -- 39
2020-09-12 23:00:00 25.7 9 Sudoeste 15 Sudoeste 0 927.7 -- 36
2020-09-12 22:00:00 28.1 6 Sudoeste 14 Sudoeste 0 927.1 -- 35
2020-09-12 21:00:00 29.5 3 Sudoeste 12 Sudoeste 0 926.4 -- 32
2020-09-12 20:00:00 31.3 4 Sudoeste 12 Sudoeste 0 926.1 -- 32
2020-09-12 19:00:00 32.4 4 Sudoeste 15 Sudoeste 0 925.9 -- 31
2020-09-12 18:00:00 32.7 6 Sudoeste 17 Sudoeste 0 926 -- 31
2020-09-12 17:00:00 33 4 Sudoeste 22 Sudoeste 0 926.1 -- 31
2020-09-12 16:00:00 32.7 5 Sudoeste 28 Sudoeste 0 926.3 -- 32
2020-09-12 15:00:00 32.4 6 Sudoeste 24 Sudoeste 0 926.7 -- 33
2020-09-12 14:00:00 32.4 11 Sudoeste 21 Sudoeste 0 927 -- 35
2020-09-12 13:00:00 30.5 7 Sudoeste 14 Sudoeste 0 927.2 -- 36
2020-09-12 12:00:00 29.2 2 Sudoeste 10 Sudoeste 0 927.3 -- 37
2020-09-12 11:00:00 27.1 5 Sudoeste 8 Sudoeste 0 927 -- 40
2020-09-12 10:00:00 22.7 0 Calma 4 Sudoeste 0 926.4 -- 45
2020-09-12 09:00:00 18.7 4 Sudoeste 8 Sudoeste 0 926.1 -- 49
2020-09-12 08:00:00 18.2 4 Sudoeste 9 Sudoeste 0 925.3 -- 49
2020-09-12 07:00:00 18.2 6 Sudoeste 7 Sudoeste 0 924.9 -- 48
2020-09-12 06:00:00 18.6 6 Sudoeste 8 Sudoeste 0 924.5 -- 46
2020-09-12 05:00:00 20.1 0 Calma 4 Sudoeste 0 924.7 -- 44
2020-09-12 04:00:00 20.1 3 Sudoeste 5 Sudoeste 0 924.4 -- 43
2020-09-12 03:00:00 20.6 3 Sudoeste 5 Sudoeste 0 924.7 -- 43
2020-09-12 02:00:00 22.1 2 Sudoeste 14 Sudoeste 0 924.7 -- 42
2020-09-12 01:00:00 22.8 4 Sudoeste 7 Sudoeste 0 924.7 -- 39
2020-09-12 00:00:00 24.9 2 Sudoeste 12 Sudoeste 0 924.6 -- 38
2020-09-11 23:00:00 25.9 7 Sudoeste 15 Sudoeste 0 924.3 -- 38
2020-09-11 22:00:00 24.6 5 Sudoeste 9 Sudoeste 0 924 -- 37
2020-09-11 21:00:00 27.7 3 Sudoeste 13 Sudoeste 0 923.2 -- 35
2020-09-11 20:00:00 28.2 10 Sudoeste 16 Sudoeste 0 923.1 -- 35
2020-09-11 19:00:00 30.1 4 Sudoeste 17 Sudoeste 0 923.1 -- 32
2020-09-11 18:00:00 31.7 3 Sudoeste 21 Sudoeste 0 923.3 -- 32
2020-09-11 17:00:00 32.2 6 Sudoeste 24 Sudoeste 0 923.7 -- 32
2020-09-11 16:00:00 31.4 6 Sudoeste 26 Sudoeste 0 924 -- 33
2020-09-11 15:00:00 30.5 6 Sudoeste 21 Sudoeste 0 924.6 -- 35
2020-09-11 14:00:00 30.7 8 Sudoeste 18 Sudoeste 0 924.9 -- 35
2020-09-11 13:00:00 29.6 8 Sudoeste 17 Sudoeste 0 925.4 -- 38
2020-09-11 12:00:00 27.5 4 Sudoeste 9 Sudoeste 0 925.6 -- 40
2020-09-11 11:00:00 25.9 2 Sudoeste 6 Sudoeste 0 925.7 -- 42
2020-09-11 10:00:00 22.1 2 Sudoeste 9 Sudoeste 0 925 -- 48
2020-09-11 09:00:00 18 5 Sudoeste 8 Sudoeste 0 924.8 -- 51
2020-09-11 08:00:00 16.9 5 Sudoeste 7 Sudoeste 0 924.3 -- 50
2020-09-11 07:00:00 18.3 6 Sudoeste 16 Sudoeste 0 924.1 -- 49
2020-09-11 06:00:00 18.8 8 Sudoeste 13 Sudoeste 0 924.2 -- 47
2020-09-11 05:00:00 18.3 7 Sudoeste 11 Sudoeste 0 924.2 -- 46
2020-09-11 04:00:00 18.7 8 Sudoeste 13 Sudoeste 0 924.5 -- 43
2020-09-11 03:00:00 20.8 5 Sudoeste 9 Sudoeste 0 924.7 -- 42
2020-09-11 02:00:00 20.2 5 Sudoeste 6 Sudoeste 0 925.2 -- 42
2020-09-11 01:00:00 20.5 0 Calma 6 Sudoeste 0 925.5 -- 41
2020-09-11 00:00:00 21.2 5 Sudoeste 9 Sudoeste 0 925.9 -- 39
2020-09-10 23:00:00 24.1 5 Sudoeste 10 Sudoeste 0 925.9 -- 38
2020-09-10 22:00:00 24.7 4 Sudoeste 13 Sudoeste 0 925.5 -- 37
2020-09-10 21:00:00 26.2 9 Sudoeste 23 Sudoeste 0 925.1 -- 36
2020-09-10 20:00:00 27.9 10 Sudoeste 23 Sudoeste 0 925 -- 33
2020-09-10 19:00:00 29.1 10 Sudoeste 23 Sudoeste 0 925.1 -- 32
2020-09-10 18:00:00 29.6 11 Sudoeste 41 Sudoeste 0 925.6 -- 31
2020-09-10 17:00:00 30.9 6 Sudoeste 22 Sudoeste 0 925.9 -- 31
2020-09-10 16:00:00 30.2 14 Sudoeste 26 Sudoeste 0 926.6 -- 32
2020-09-10 15:00:00 29.1 8 Sudoeste 28 Sudoeste 0 927.2 -- 33
2020-09-10 14:00:00 28.7 5 Sudoeste 24 Sudoeste 0 927.8 -- 34
2020-09-10 13:00:00 28.9 9 Sudoeste 18 Sudoeste 0 928.4 -- 35
2020-09-10 12:00:00 27.2 6 Sudoeste 13 Sudoeste 0 928.7 -- 39
2020-09-10 11:00:00 26.2 6 Sudoeste 13 Sudoeste 0 928.9 -- 42
2020-09-10 10:00:00 22.3 4 Sudoeste 7 Sudoeste 0 928.6 -- 49
2020-09-10 09:00:00 17 4 Sudoeste 6 Sudoeste 0 928.4 -- 54
2020-09-10 08:00:00 15.2 5 Sudoeste 8 Sudoeste 0 927.9 -- 55
2020-09-10 07:00:00 16.2 5 Sudoeste 7 Sudoeste 0 927.5 -- 52
2020-09-10 06:00:00 16.7 0 Calma 4 Sudoeste 0 927.6 -- 51
2020-09-10 05:00:00 17.2 0 Calma 4 Oeste 0 927.8 -- 50
2020-09-10 04:00:00 18 0 Calma 4 Sudoeste 0 928.2 -- 49
2020-09-10 03:00:00 18.4 2 Sudoeste 7 Sudoeste 0 928.5 -- 47
2020-09-10 02:00:00 19.7 2 Sudoeste 4 Sudoeste 0 928.8 -- 45
2020-09-10 01:00:00 20.7 3 Sudoeste 6 Sudoeste 0 928.9 -- 43
2020-09-10 00:00:00 20.2 3 Sudoeste 5 Sudoeste 0 929.2 -- 43
2020-09-09 23:00:00 21.8 0 Calma 10 Sudoeste 0 929 -- 42
2020-09-09 22:00:00 23.4 7 Sudoeste 15 Oeste 0 928.9 -- 40
2020-09-09 21:00:00 24.9 12 Sudoeste 22 Sudoeste 0 928.3 -- 39
2020-09-09 20:00:00 26.5 12 Sudoeste 22 Sudoeste 0 927.9 -- 37
2020-09-09 19:00:00 27.4 7 Sudoeste 18 Sudoeste 0 927.7 -- 36
2020-09-09 18:00:00 27.3 5 Sudoeste 21 Sudoeste 0 928 -- 37
2020-09-09 17:00:00 28.1 7 Sudoeste 21 Oeste 0 928.1 -- 38
2020-09-09 16:00:00 27.4 5 Sudoeste 24 Sudoeste 0 928.5 -- 40
2020-09-09 15:00:00 27.6 6 Sudoeste 19 Sudoeste 0 929 -- 43
2020-09-09 14:00:00 26.5 9 Sudoeste 21 Sudoeste 0 929.4 -- 47
2020-09-09 13:00:00 25.4 4 Sudoeste 16 Sudoeste 0 930 -- 51
2020-09-09 12:00:00 23.9 6 Sudoeste 14 Sudoeste 0 930.6 -- 55
2020-09-09 11:00:00 22.6 5 Sudoeste 14 Sudoeste 0 930.6 -- 58
2020-09-09 10:00:00 21.4 6 Sudoeste 12 Sudoeste 0 930.2 -- 62
2020-09-09 09:00:00 18.2 3 Sudoeste 9 Sudoeste 0 929.8 -- 71
2020-09-09 08:00:00 15.7 6 Sudoeste 11 Sudoeste 0 929.4 -- 75
2020-09-09 07:00:00 16.2 4 Sudoeste 7 Sudoeste 0 929 -- 73
2020-09-09 06:00:00 16.5 8 Sudoeste 14 Sudoeste 0 928.8 -- 73
2020-09-09 05:00:00 16.5 14 Sudoeste 18 Sudoeste 0 928.9 -- 71
2020-09-09 04:00:00 17.9 13 Sudoeste 18 Sudoeste 0 929 -- 68
2020-09-09 03:00:00 18.6 5 Sudoeste 19 Sudoeste 0 928.9 -- 65
2020-09-09 02:00:00 19.2 17 Sudoeste 24 Sudoeste 0 928.9 -- 62
2020-09-09 01:00:00 19.6 10 Sudoeste 29 Sudoeste 0 929.3 -- 56
2020-09-09 00:00:00 20.6 20 Sudoeste 29 Sudoeste 0 929.1 -- 51
2020-09-08 23:00:00 21.6 14 Sudoeste 33 Sudoeste 0 928.9 -- 48
2020-09-08 22:00:00 24 5 Sudoeste 9 Sudoeste 0 927.8 -- 39
2020-09-08 21:00:00 25.5 6 Sudoeste 14 Sudoeste 0 927.4 -- 38
2020-09-08 20:00:00 26.8 10 Sudoeste 16 Sudoeste 0 927.3 -- 37
2020-09-08 19:00:00 27.9 6 Sudoeste 19 Sudoeste 0 927.2 -- 38
2020-09-08 18:00:00 27.9 9 Sudoeste 18 Sudoeste 0 927.4 -- 38
2020-09-08 17:00:00 27.7 9 Sudoeste 18 Sudoeste 0 927.6 -- 38
2020-09-08 16:00:00 28.3 6 Sudoeste 16 Sudoeste 0 927.9 -- 39
2020-09-08 15:00:00 25.6 7 Sudoeste 18 Sudoeste 0 928.4 -- 42
2020-09-08 14:00:00 25.6 8 Sudoeste 19 Sudoeste 0 928.8 -- 48
2020-09-08 13:00:00 25 5 Sudoeste 13 Sudoeste 0 929.3 -- 51
2020-09-08 12:00:00 23 5 Sudoeste 17 Sudoeste 0 929.5 -- 57
2020-09-08 11:00:00 20.3 4 Sudoeste 12 Sudoeste 0 929.7 -- 62
2020-09-08 10:00:00 17.7 5 Sudoeste 8 Sudoeste 0 929 -- 62
2020-09-08 09:00:00 13.8 3 Sudoeste 8 Sudoeste 0 929 -- 61
2020-09-08 08:00:00 13.1 4 Sudoeste 6 Sudoeste 0 928.3 -- 62
2020-09-08 07:00:00 14.4 2 Sudoeste 3 Sudoeste 0 927.9 -- 60
2020-09-08 06:00:00 14.3 0 Calma 5 Sudoeste 0 927.6 -- 57
2020-09-08 05:00:00 13.5 4 Sudoeste 11 Sudoeste 0 927.7 -- 52
2020-09-08 04:00:00 15.8 6 Sudoeste 11 Sudoeste 0 927.3 -- 49
2020-09-08 03:00:00 17.9 6 Sudoeste 12 Sudoeste 0 927.7 -- 40
2020-09-08 02:00:00 18 0 Calma 4 Sudoeste 0 927.8 -- 39
2020-09-08 01:00:00 18.6 0 Calma 17 Sudoeste 0 928 -- 37
2020-09-08 00:00:00 20.8 6 Sudoeste 21 Sudoeste 0 928 -- 36
2020-09-07 23:00:00 21.8 13 Sudoeste 21 Sudoeste 0 927.8 -- 35
2020-09-07 22:00:00 23 15 Sudoeste 25 Sudoeste 0 927.2 -- 34
2020-09-07 21:00:00 24.2 15 Sudoeste 27 Sudoeste 0 926.4 -- 35
2020-09-07 20:00:00 26.1 17 Sudoeste 29 Sudoeste 0 925.8 -- 36
2020-09-07 19:00:00 26.7 20 Sudoeste 32 Sudoeste 0 925.8 -- 36
2020-09-07 18:00:00 27.5 18 Sudoeste 32 Sudoeste 0 925.8 -- 36
2020-09-07 17:00:00 27.9 22 Sudoeste 33 Sudoeste 0 925.9 -- 35
2020-09-07 16:00:00 28.4 17 Sudoeste 32 Sudoeste 0 926.2 -- 36
2020-09-07 15:00:00 27.9 12 Sudoeste 25 Sudoeste 0 926.6 -- 39
2020-09-07 14:00:00 27.5 13 Sudoeste 23 Sudoeste 0 926.6 -- 39
2020-09-07 13:00:00 27.1 12 Sudoeste 23 Sudoeste 0 927.1 -- 40
2020-09-07 12:00:00 25.4 10 Sudoeste 19 Sudoeste 0 927.1 -- 45
2020-09-07 11:00:00 23.9 5 Sudoeste 13 Sudoeste 0 926.9 -- 43
2020-09-07 10:00:00 22.4 3 Sudoeste 9 Sudoeste 0 926.2 -- 45
2020-09-07 09:00:00 19.8 0 Calma 4 Sudoeste 0 925.5 -- 46
2020-09-07 08:00:00 19.5 3 Sudoeste 7 Sudoeste 0 925.1 -- 46
2020-09-07 07:00:00 19.6 3 Sudoeste 13 Sudoeste 0 925 -- 46
2020-09-07 06:00:00 20.7 6 Sudoeste 14 Sudoeste 0 924.8 -- 43
2020-09-07 05:00:00 19.8 8 Sudoeste 13 Sudoeste 0 924.6 -- 43
2020-09-07 04:00:00 23.1 7 Sudoeste 14 Sudoeste 0 924.7 -- 41
2020-09-07 03:00:00 24.1 10 Sudoeste 27 Sudoeste 0 924.8 -- 40
2020-09-07 02:00:00 23.2 14 Sudoeste 17 Sudoeste 0 924.9 -- 42
2020-09-07 01:00:00 24.9 6 Sudoeste 10 Sudoeste 0 925 -- 42
2020-09-07 00:00:00 25.8 7 Sudoeste 14 Sudoeste 0 924.7 -- 40
2020-09-06 23:00:00 25.2 7 Sudoeste 11 Sudoeste 0 924.6 -- 39
2020-09-06 22:00:00 26 5 Sudoeste 6 Sudoeste 0 924.3 -- 37
2020-09-06 21:00:00 28.3 3 Sudoeste 9 Sudoeste 0 923.8 -- 35
2020-09-06 20:00:00 30.4 4 Sudoeste 10 Sudoeste 0 923.7 -- 34
2020-09-06 19:00:00 31.6 9 Sudoeste 19 Sudoeste 0 923.9 -- 34
2020-09-06 18:00:00 31.8 8 Sudoeste 26 Sudoeste 0 924.1 -- 34
2020-09-06 17:00:00 32.8 7 Sudoeste 23 Sudoeste 0 924.5 -- 33
2020-09-06 16:00:00 32.2 10 Sudoeste 24 Sudoeste 0 924.9 -- 33
2020-09-06 15:00:00 32 4 Sudoeste 19 Sudoeste 0 925.5 -- 35
2020-09-06 14:00:00 31.5 4 Sudoeste 14 Sudoeste 0 925.7 -- 38
2020-09-06 13:00:00 29.9 4 Sudoeste 13 Sudoeste 0 926.1 -- 43
2020-09-06 12:00:00 28.1 2 Sudoeste 11 Sudoeste 0 926.4 -- 46
2020-09-06 11:00:00 26.2 6 Sudoeste 13 Sudoeste 0 926.2 -- 50
2020-09-06 10:00:00 25.7 2 Sudoeste 9 Sudoeste 0 926 -- 51
2020-09-06 09:00:00 21.6 4 Sudoeste 10 Sudoeste 0 925.7 -- 62
2020-09-06 08:00:00 19.1 4 Sudoeste 14 Sudoeste 0 925.4 -- 63
2020-09-06 07:00:00 19.5 8 Sudoeste 14 Sudoeste 0 925.2 -- 64
2020-09-06 06:00:00 20.5 0 Calma 11 Sudoeste 0 925.2 -- 57
2020-09-06 05:00:00 20.9 3 Sudoeste 23 Sudoeste 0 925.1 -- 56
2020-09-06 04:00:00 23.3 10 Sudoeste 26 Sudoeste 0 925.4 -- 49
2020-09-06 03:00:00 22.2 11 Sudoeste 21 Sudoeste 0 925.7 -- 46
2020-09-06 02:00:00 22.8 10 Sudoeste 18 Sudoeste 0 926.1 -- 47
2020-09-06 01:00:00 23.3 13 Sudoeste 17 Sudoeste 0 926.1 -- 43
2020-09-06 00:00:00 24.8 11 Sudoeste 16 Sudoeste 0 926 -- 41
2020-09-05 23:00:00 25.6 6 Sudoeste 15 Sudoeste 0 925.9 -- 36
2020-09-05 22:00:00 27.4 4 Sudoeste 12 Sudoeste 0 925.6 -- 32
2020-09-05 21:00:00 29.1 8 Sudoeste 17 Sudoeste 0 925.1 -- 32
2020-09-05 20:00:00 31 9 Sudoeste 21 Sudoeste 0 925.2 -- 31
2020-09-05 19:00:00 31.9 8 Sudoeste 21 Sudoeste 0 925.4 -- 30
2020-09-05 18:00:00 32.2 9 Sudoeste 20 Sudoeste 0 926 -- 30
2020-09-05 17:00:00 32.5 6 Sudoeste 19 Sudoeste 0 926.5 -- 30
2020-09-05 16:00:00 32.4 6 Sudoeste 15 Sudoeste 0 927.1 -- 31
2020-09-05 15:00:00 31.4 5 Sudoeste 15 Sudoeste 0 928.1 -- 31
2020-09-05 14:00:00 30.3 8 Sudoeste 16 Sudoeste 0 928.6 -- 34
2020-09-05 13:00:00 29.1 8 Sudoeste 14 Sudoeste 0 928.9 -- 36
2020-09-05 12:00:00 27.9 5 Sudoeste 12 Sudoeste 0 929.4 -- 39
2020-09-05 11:00:00 26.1 5 Sudoeste 11 Sudoeste 0 929.2 -- 43
2020-09-05 10:00:00 22.9 2 Sudoeste 5 Sudoeste 0 929.2 -- 50
2020-09-05 09:00:00 18.9 4 Sudoeste 5 Sudoeste 0 929 -- 56
2020-09-05 08:00:00 17.4 4 Sudoeste 6 Sudoeste 0 928.8 -- 56
2020-09-05 07:00:00 17.9 5 Sudoeste 8 Sudoeste 0 928.5 -- 54
2020-09-05 06:00:00 18.4 3 Sudoeste 8 Sudoeste 0 928.4 -- 51
2020-09-05 05:00:00 18.2 6 Sudoeste 10 Sudoeste 0 928.7 -- 51
2020-09-05 04:00:00 20 2 Sudoeste 10 Sudoeste 0 928.7 -- 47
2020-09-05 03:00:00 21.1 4 Sudoeste 23 Sudoeste 0 929.1 -- 45
2020-09-05 02:00:00 21.9 17 Sudoeste 28 Sudoeste 0 929.3 -- 45
2020-09-05 01:00:00 22.2 17 Sudoeste 22 Sudoeste 0 929.7 -- 35
2020-09-05 00:00:00 22.2 6 Sudoeste 15 Sudoeste 0 929.7 -- 34
2020-09-04 23:00:00 25.5 10 Sudoeste 17 Sudoeste 0 929.6 -- 32
2020-09-04 22:00:00 26.3 4 Sudoeste 12 Sudoeste 0 929.4 -- 31
2020-09-04 21:00:00 26.6 8 Sudoeste 19 Sudoeste 0 928.9 -- 29
2020-09-04 20:00:00 29.9 12 Sudoeste 20 Sudoeste 0 928.6 -- 28
2020-09-04 19:00:00 31.5 4 Sudoeste 21 Sudoeste 0 928.9 -- 28
2020-09-04 18:00:00 31.7 9 Sudoeste 18 Sudoeste 0 929.2 -- 29
2020-09-04 17:00:00 31.6 9 Sudoeste 22 Sudoeste 0 929.6 -- 30
2020-09-04 16:00:00 30.5 10 Oeste 19 Oeste 0 930 -- 31
2020-09-04 15:00:00 29.5 7 Sudoeste 22 Sudoeste 0 930.9 -- 32
2020-09-04 14:00:00 28.5 8 Sudoeste 15 Sudoeste 0 931.4 -- 33
2020-09-04 13:00:00 27.7 4 Sudoeste 14 Oeste 0 931.9 -- 35
2020-09-04 12:00:00 26.5 6 Sudoeste 18 Sudoeste 0 932.1 -- 40
2020-09-04 11:00:00 25.2 6 Sudoeste 14 Sudoeste 0 931.9 -- 48
2020-09-04 10:00:00 21.8 6 Sudoeste 11 Sudoeste 0 931.7 -- 57
2020-09-04 09:00:00 19.7 0 Calma 8 Sudoeste 0 931.1 -- 67
2020-09-04 08:00:00 17.7 5 Sudoeste 8 Sudoeste 0 930.6 -- 75
2020-09-04 07:00:00 18.1 6 Sudoeste 15 Sudoeste 0 930.4 -- 73
2020-09-04 06:00:00 18.8 5 Sudoeste 19 Sudoeste 0 930.3 -- 71
2020-09-04 05:00:00 19.1 17 Sudoeste 22 Sudoeste 0 930.5 -- 68
2020-09-04 04:00:00 19.4 18 Sudoeste 22 Sudoeste 0 930.4 -- 65
2020-09-04 03:00:00 20.6 4 Sudoeste 13 Sudoeste 0 930.4 -- 58
2020-09-04 02:00:00 21.3 7 Sudoeste 17 Sudoeste 0 931.1 -- 60
2020-09-04 01:00:00 21.6 10 Sudoeste 17 Sudoeste 0 931.4 -- 53
2020-09-04 00:00:00 22.9 13 Sudoeste 26 Oeste 0 931.2 -- 46
2020-09-03 23:00:00 24.3 17 Sudoeste 24 Sudoeste 0 930.4 -- 39
2020-09-03 22:00:00 26.5 11 Sudoeste 18 Sudoeste 0 929.6 -- 35
2020-09-03 21:00:00 28.1 5 Sudoeste 17 Sudoeste 0 929 -- 33
2020-09-03 20:00:00 29.8 5 Sudoeste 12 Sudoeste 0 928.7 -- 31
2020-09-03 19:00:00 30.8 9 Sudoeste 18 Sudoeste 0 928.6 -- 31
2020-09-03 18:00:00 31.4 7 Sudoeste 21 Sudoeste 0 928.7 -- 31
2020-09-03 17:00:00 31.1 4 Sudoeste 20 Sudoeste 0 929 -- 32
2020-09-03 16:00:00 30.1 8 Sudoeste 23 Sudoeste 0 929.4 -- 33
2020-09-03 15:00:00 30.2 7 Sudoeste 25 Sudoeste 0 929.8 -- 33
2020-09-03 14:00:00 29.3 8 Sudoeste 22 Oeste 0 930.1 -- 35
2020-09-03 13:00:00 27.8 3 Nordeste 22 Este 0 930.2 -- 38
2020-09-03 12:00:00 27.3 4 Este 15 Sudeste 0 930 -- 41
2020-09-03 11:00:00 26.4 3 Nordeste 10 Norte 0 929.9 -- 45
2020-09-03 10:00:00 23.3 2 Nordeste 4 Nordeste 0 929.6 -- 51
2020-09-03 09:00:00 19 2 Nordeste 6 Nordeste 0 928.8 -- 60
2020-09-03 08:00:00 16.3 0 Calma 5 Norte 0 928.3 -- 66
2020-09-03 07:00:00 16.2 2 Nordeste 4 Norte 0 927.8 -- 63
2020-09-03 06:00:00 17.8 3 Norte 13 Este 0 927.3 -- 61
2020-09-03 05:00:00 19 5 Nordeste 17 Sudeste 0 927.3 -- 55
2020-09-03 04:00:00 19.8 5 Sudeste 16 Sudeste 0 927.2 -- 54
2020-09-03 03:00:00 19.8 6 Sudeste 18 Sudeste 0 927.2 -- 49
2020-09-03 02:00:00 20.4 9 Sudeste 18 Sudoeste 0 927.4 -- 43
2020-09-03 01:00:00 20.6 7 Sudeste 17 Sudoeste 0 927.4 -- 39
2020-09-03 00:00:00 21.9 5 Este 10 Nordeste 0 927 -- 36
2020-09-02 23:00:00 23.2 2 Nordeste 9 Nordeste 0 926.5 -- 34
2020-09-02 22:00:00 24.5 6 Nordeste 15 Norte 0 926 -- 32
2020-09-02 21:00:00 26.1 10 Norte 24 Norte 0 925.2 -- 32
2020-09-02 20:00:00 27.8 14 Norte 26 Norte 0 924.9 -- 30
2020-09-02 19:00:00 29.2 7 Noroeste 24 Nordeste 0 924.4 -- 29
2020-09-02 18:00:00 29.4 10 Noroeste 22 Noroeste 0 924.2 -- 29
2020-09-02 17:00:00 29.2 5 Norte 21 Noroeste 0 924.2 -- 29
2020-09-02 16:00:00 29.7 2 Sur 20 Oeste 0 924.4 -- 30
2020-09-02 15:00:00 29.7 2 Norte 23 Norte 0 924.5 -- 31
2020-09-02 14:00:00 28.2 3 Noroeste 17 Norte 0 925 -- 32
2020-09-02 13:00:00 27.8 0 Calma 17 Sudoeste 0 925 -- 35
2020-09-02 12:00:00 26.2 2 Norte 11 Este 0 925.2 -- 39
2020-09-02 11:00:00 24.1 5 Norte 8 Nordeste 0 924.6 -- 43
2020-09-02 10:00:00 20.7 0 Calma 6 Nordeste 0 924 -- 50
2020-09-02 09:00:00 16.8 4 Nordeste 8 Nordeste 0 923.6 -- 56
2020-09-02 08:00:00 14.7 3 Nordeste 7 Nordeste 0 923.1 -- 57
2020-09-02 07:00:00 15.6 5 Nordeste 7 Nordeste 0 922.7 -- 55
2020-09-02 06:00:00 16.7 2 Este 9 Este 0 922.3 -- 52
2020-09-02 05:00:00 17.4 5 Nordeste 9 Nordeste 0 922.1 -- 51
2020-09-02 04:00:00 18.6 0 Calma 6 Nordeste 0 922.2 -- 49
2020-09-02 03:00:00 19.3 0 Calma 3 Sudoeste 0 922.2 -- 48
2020-09-02 02:00:00 19.4 2 Sur 8 Oeste 0 922.2 -- 47
2020-09-02 01:00:00 21 4 Oeste 8 Oeste 0 922.4 -- 45
2020-09-02 00:00:00 20.9 3 Norte 10 Sudoeste 0 922.6 -- 45
2020-09-01 23:00:00 20.7 6 Sudoeste 11 Sudoeste 0 922.2 -- 44
2020-09-01 22:00:00 22 7 Sudoeste 11 Sur 0 921.9 -- 43
2020-09-01 21:00:00 23.5 7 Sur 22 Sur 0 921.4 -- 41
2020-09-01 20:00:00 25.5 12 Sur 23 Sudoeste 0 921.3 -- 36
2020-09-01 19:00:00 26.5 11 Oeste 21 Oeste 0 921.5 -- 32
2020-09-01 18:00:00 27 6 Oeste 23 Noroeste 0 921.5 -- 32
2020-09-01 17:00:00 28 8 Sur 26 Sudoeste 0 921.9 -- 32
2020-09-01 16:00:00 27.7 7 Sudoeste 25 Sudoeste 0 922.5 -- 34
2020-09-01 15:00:00 26 9 Sudoeste 26 Oeste 0 923.1 -- 39
2020-09-01 14:00:00 24.6 4 Norte 22 Sudoeste 0 923.1 -- 42
2020-09-01 13:00:00 23 8 Sudeste 19 Sudeste 0 923.3 -- 43
2020-09-01 12:00:00 22.1 5 Nordeste 11 Nordeste 0 923.9 -- 45
2020-09-01 11:00:00 20.6 3 Norte 7 Este 0 924.1 -- 46
2020-09-01 10:00:00 18.3 4 Nordeste 8 Este 0 923.9 -- 43
2020-09-01 09:00:00 16 4 Este 9 Este 0 923.7 -- 41
2020-09-01 08:00:00 14.8 0 Calma 7 Nordeste 0 923.7 -- 40
2020-09-01 07:00:00 14.4 5 Nordeste 8 Nordeste 0 923.6 -- 39
2020-09-01 06:00:00 14.4 5 Nordeste 6 Nordeste 0 923.4 -- 39
2020-09-01 05:00:00 14.5 4 Norte 7 Nordeste 0 923.7 -- 38
2020-09-01 04:00:00 15.3 2 Nordeste 10 Este 0 924.3 -- 36
2020-09-01 03:00:00 18.3 10 Este 14 Este 0 924.9 -- 34
2020-09-01 02:00:00 18.1 3 Sur 8 Este 0 925.4 -- 33
2020-09-01 01:00:00 19.1 5 Este 6 Este 0 925.7 -- 32
2020-09-01 00:00:00 19.2 3 Sur 5 Sudoeste 0 925.6 -- 32
2020-08-31 23:00:00 20 5 Sudoeste 8 Nordeste 0 925.3 -- 31
2020-08-31 22:00:00 22.3 8 Nordeste 17 Norte 0 925 -- 29
2020-08-31 21:00:00 24.5 11 Norte 19 Norte 0 924.4 -- 27
2020-08-31 20:00:00 26.5 7 Norte 19 Norte 0 924.4 -- 26
2020-08-31 19:00:00 27.4 7 Oeste 21 Sudoeste 0 924.8 -- 26
2020-08-31 18:00:00 27.8 8 Sudoeste 20 Oeste 0 925.2 -- 26
2020-08-31 17:00:00 27.9 5 Sudoeste 21 Sudoeste 0 925.4 -- 26
2020-08-31 16:00:00 27.6 8 Sudoeste 16 Sudoeste 0 926 -- 27
2020-08-31 15:00:00 26.4 5 Norte 20 Norte 0 926.5 -- 28
2020-08-31 14:00:00 25.4 7 Nordeste 22 Nordeste 0 927.2 -- 30
2020-08-31 13:00:00 24.7 4 Este 16 Norte 0 927.7 -- 32
2020-08-31 12:00:00 -- 6 Nordeste 14 Norte 0 -- -- --
2020-08-31 11:00:00 -- 0 Calma 9 Norte 0 -- -- --
2020-08-31 10:00:00 -- 2 Norte 5 Norte 0 -- -- --
2020-08-31 09:00:00 -- 0 Calma 5 Sudoeste 0 -- -- --
2020-08-31 08:00:00 -- 2 Norte 5 Norte 0 -- -- --
2020-08-31 07:00:00 -- 0 Calma 5 Nordeste 0 -- -- --
2020-08-31 06:00:00 -- 0 Calma 3 Norte 0 -- -- --
2020-08-31 05:00:00 -- 2 Norte 4 Sur 0 -- -- --
2020-08-31 04:00:00 -- 0 Calma 4 Sur 0 -- -- --
2020-08-31 03:00:00 -- 2 Nordeste 6 Este 0 -- -- --
2020-08-31 02:00:00 -- 4 Este 9 Este 0 -- -- --
2020-08-31 01:00:00 -- 0 Calma 13 Norte 0 -- -- --
2020-08-31 00:00:00 -- 7 Norte 16 Nordeste 0 -- -- --
2020-08-30 23:00:00 -- 9 Nordeste 16 Nordeste 0 -- -- --
2020-08-30 22:00:00 -- 8 Nordeste 23 Nordeste 0 -- -- --
2020-08-30 21:00:00 -- 14 Nordeste 26 Nordeste 0 -- -- --
2020-08-30 20:00:00 -- 17 Norte 27 Norte 0 -- -- --
2020-08-30 19:00:00 -- 11 Norte 31 Norte 0 -- -- --
2020-08-30 18:00:00 -- 9 Norte 26 Norte 0 -- -- --
2020-08-30 17:00:00 -- 11 Norte 45 Noroeste 0 -- -- --
2020-08-30 16:00:00 -- 6 Sudeste 27 Norte 0 -- -- --
2020-08-30 15:00:00 -- 4 Nordeste 26 Norte 0 -- -- --
2020-08-30 14:00:00 -- 8 Norte 25 Norte 0 -- -- --
2020-08-30 13:00:00 -- 10 Norte 23 Norte 0 -- -- --
2020-08-30 12:00:00 -- 10 Norte 23 Noroeste 0 -- -- --
2020-08-30 11:00:00 -- 8 Norte 17 Norte 0 -- -- --
2020-08-30 10:00:00 -- 6 Norte 12 Norte 0 -- -- --
2020-08-30 09:00:00 -- 7 Norte 14 Norte 0 -- -- --
2020-08-30 08:00:00 -- 6 Norte 12 Norte 0 -- -- --
2020-08-30 07:00:00 -- 3 Noroeste 8 Norte 0 -- -- --
2020-08-30 06:00:00 -- 3 Oeste 7 Norte 0 -- -- --
2020-08-30 05:00:00 -- 3 Norte 8 Norte 0 -- -- --
2020-08-30 04:00:00 -- 0 Calma 13 Nordeste 0 -- -- --
2020-08-30 03:00:00 -- 7 Nordeste 16 Nordeste 0 -- -- --
2020-08-30 02:00:00 -- 4 Nordeste 14 Nordeste 0 -- -- --
2020-08-30 01:00:00 -- 8 Nordeste 18 Norte 0 -- -- --
2020-08-30 00:00:00 -- 11 Norte 18 Norte 0 -- -- --
2020-08-29 23:00:00 -- 8 Norte 18 Norte 0 -- -- --
2020-08-29 22:00:00 -- 11 Norte 24 Norte 0 -- -- --
2020-08-29 21:00:00 -- 15 Norte 32 Norte 0 -- -- --
2020-08-29 20:00:00 -- 14 Noroeste 33 Norte 0 -- -- --
2020-08-29 19:00:00 -- 15 Norte 39 Noroeste 0 -- -- --
2020-08-29 18:00:00 -- 14 Noroeste 32 Norte 0 -- -- --
2020-08-29 17:00:00 -- 14 Noroeste 32 Norte 0 -- -- --
2020-08-29 16:00:00 -- 14 Noroeste 34 Oeste 0 -- -- --
2020-08-29 15:00:00 -- 13 Noroeste 28 Noroeste 0 -- -- --
2020-08-29 14:00:00 -- 9 Norte 30 Nordeste 0 -- -- --
2020-08-29 13:00:00 -- 14 Norte 33 Norte 0 -- -- --
2020-08-29 12:00:00 -- 20 Norte 36 Norte 0 -- -- --
2020-08-29 11:00:00 -- 10 Norte 23 Noroeste 0 -- -- --
2020-08-29 10:00:00 -- 8 Noroeste 16 Sudoeste 0 -- -- --
2020-08-29 09:00:00 -- 9 Oeste 15 Oeste 0 -- -- --
2020-08-29 08:00:00 -- 9 Oeste 15 Oeste 0 -- -- --
2020-08-29 07:00:00 -- 10 Oeste 16 Oeste 0 -- -- --
2020-08-29 06:00:00 -- 10 Oeste 18 Oeste 0 -- -- --
2020-08-29 05:00:00 -- 10 Oeste 18 Oeste 0 -- -- --
2020-08-29 04:00:00 -- 15 Oeste 19 Oeste 0 -- -- --
2020-08-29 03:00:00 -- 13 Oeste 23 Oeste 0 -- -- --
2020-08-29 02:00:00 -- 13 Oeste 19 Oeste 0 -- -- --
2020-08-29 01:00:00 -- 12 Oeste 23 Oeste 0 -- -- --
2020-08-29 00:00:00 -- 11 Oeste 22 Oeste 0 -- -- --
2020-08-28 23:00:00 -- 12 Oeste 22 Oeste 0 -- -- --
2020-08-28 22:00:00 -- 9 Oeste 27 Oeste 0 -- -- --
2020-08-28 21:00:00 -- 15 Oeste 39 Oeste 0 -- -- --
2020-08-28 20:00:00 -- 19 Oeste 40 Noroeste 0 -- -- --
2020-08-28 19:00:00 -- 18 Oeste 37 Oeste 0 -- -- --
2020-08-28 18:00:00 -- 20 Oeste 41 Oeste 0 -- -- --
2020-08-28 17:00:00 -- 26 Oeste 44 Noroeste 0 -- -- --
2020-08-28 16:00:00 -- 19 Oeste 42 Oeste 0 -- -- --
2020-08-28 15:00:00 -- 17 Oeste 36 Oeste 0 -- -- --
2020-08-28 14:00:00 -- 14 Oeste 33 Sudoeste 0 -- -- --
2020-08-28 13:00:00 -- 18 Sudoeste 34 Sudoeste 0 -- -- --
2020-08-28 12:00:00 -- 14 Oeste 26 Oeste 0 -- -- --
2020-08-28 11:00:00 -- 14 Oeste 26 Sudoeste 0 -- -- --
2020-08-28 10:00:00 -- 4 Noroeste 10 Oeste 0 -- -- --
2020-08-28 09:00:00 -- 3 Sudoeste 6 Oeste 0 -- -- --
2020-08-28 08:00:00 -- 4 Noroeste 5 Noroeste 0 -- -- --
2020-08-28 07:00:00 -- 0 Calma 6 Oeste 0 -- -- --
2020-08-28 06:00:00 -- 0 Calma 13 Oeste 0 -- -- --
2020-08-28 05:00:00 -- 8 Oeste 18 Oeste 0 -- -- --
2020-08-28 04:00:00 -- 14 Oeste 18 Oeste 0 -- -- --
2020-08-28 03:00:00 -- 13 Oeste 19 Oeste 0 -- -- --
2020-08-28 02:00:00 -- 13 Oeste 17 Oeste 0 -- -- --
2020-08-28 01:00:00 -- 13 Oeste 17 Oeste 0 -- -- --
2020-08-28 00:00:00 -- 11 Sudoeste 16 Sudoeste 0 -- -- --
2020-08-27 23:00:00 -- 16 Sudoeste 23 Oeste 0 -- -- --
2020-08-27 22:00:00 -- 19 Sudoeste 27 Sudoeste 0 -- -- --
2020-08-27 21:00:00 -- 19 Sudoeste 32 Sudoeste 0 -- -- --
2020-08-27 20:00:00 -- 22 Sudoeste 36 Sudoeste 0 -- -- --
2020-08-27 19:00:00 -- 22 Sudoeste 38 Sur 0 -- -- --
2020-08-27 18:00:00 -- 9 Sudoeste 30 Sudoeste 0 -- -- --
2020-08-27 17:00:00 -- 10 Sudoeste 27 Sudoeste 0 -- -- --
2020-08-27 16:00:00 -- 8 Oeste 22 Sudoeste 0 -- -- --
2020-08-27 15:00:00 -- 4 Oeste 24 Sudoeste 0 -- -- --
2020-08-27 14:00:00 -- 6 Oeste 23 Sudoeste 0 -- -- --
2020-08-27 13:00:00 -- 4 Este 16 Sudeste 0 -- -- --
2020-08-27 12:00:00 -- 2 Noroeste 9 Nordeste 0 -- -- --
2020-08-27 11:00:00 -- 3 Norte 7 Este 0 -- -- --
2020-08-27 10:00:00 -- 3 Nordeste 5 Nordeste 0 -- -- --
2020-08-27 09:00:00 -- 0 Calma 7 Nordeste 0 -- -- --
2020-08-27 08:00:00 -- 2 Nordeste 4 Nordeste 0 -- -- --
2020-08-27 07:00:00 -- 0 Calma 5 Norte 0 -- -- --
2020-08-27 06:00:00 -- 3 Norte 7 Nordeste 0 -- -- --
2020-08-27 05:00:00 -- 5 Nordeste 6 Nordeste 0 -- -- --
2020-08-27 04:00:00 -- 2 Nordeste 4 Sudoeste 0 -- -- --
2020-08-27 03:00:00 -- 4 Sudoeste 8 Oeste 0 -- -- --
2020-08-27 02:00:00 -- 3 Sudoeste 6 Sudoeste 0 -- -- --
2020-08-27 01:00:00 -- 2 Sudoeste 9 Oeste 0 -- -- --
2020-08-27 00:00:00 -- 4 Oeste 14 Oeste 0 -- -- --
2020-08-26 23:00:00 -- 5 Oeste 18 Sudoeste 0 -- -- --
2020-08-26 22:00:00 -- 10 Sudoeste 17 Oeste 0 -- -- --
2020-08-26 21:00:00 -- 8 Oeste 18 Oeste 0 -- -- --
2020-08-26 20:00:00 -- 3 Oeste 24 Sur 0 -- -- --
2020-08-26 19:00:00 -- 6 Noroeste 32 Oeste 0 -- -- --
2020-08-26 18:00:00 -- 9 Noroeste 26 Oeste 0 -- -- --
2020-08-26 17:00:00 -- 4 Sudoeste 23 Sudoeste 0 -- -- --
2020-08-26 16:00:00 -- 9 Oeste 21 Oeste 0 -- -- --
2020-08-26 15:00:00 -- 8 Sur 21 Sudoeste 0 -- -- --
2020-08-26 14:00:00 -- 7 Oeste 18 Sur 0 -- -- --
2020-08-26 13:00:00 -- 8 Nordeste 26 Sudeste 0 -- -- --
2020-08-26 12:00:00 -- 2 Nordeste 10 Noroeste 0 -- -- --
2020-08-26 11:00:00 -- 4 Norte 8 Norte 0 -- -- --
2020-08-26 10:00:00 -- 5 Nordeste 8 Sudeste 0 -- -- --
2020-08-26 09:00:00 -- 4 Nordeste 9 Nordeste 0 -- -- --
2020-08-26 08:00:00 -- 4 Nordeste 8 Nordeste 0 -- -- --
2020-08-26 07:00:00 -- 6 Norte 8 Este 0 -- -- --
2020-08-26 06:00:00 -- 4 Nordeste 5 Nordeste 0 -- -- --
2020-08-26 05:00:00 -- 0 Calma 7 Nordeste 0 -- -- --
2020-08-26 04:00:00 -- 5 Este 9 Este 0 -- -- --
2020-08-26 03:00:00 -- 3 Nordeste 6 Nordeste 0 -- -- --
2020-08-26 02:00:00 -- 3 Sudoeste 7 Oeste 0 -- -- --
2020-08-26 01:00:00 -- 3 Noroeste 9 Oeste 0 -- -- --
2020-08-26 00:00:00 -- 5 Oeste 12 Oeste 0 -- -- --
2020-08-25 23:00:00 -- 10 Oeste 19 Sur 0 -- -- --
2020-08-25 22:00:00 -- 10 Sudoeste 18 Sudoeste 0 -- -- --
2020-08-25 21:00:00 -- 11 Sur 24 Sur 0 -- -- --
2020-08-25 20:00:00 -- 15 Sur 21 Sur 0 -- -- --
2020-08-25 19:00:00 -- 2 Noroeste 17 Noroeste 0 -- -- --
2020-08-25 18:00:00 -- 8 Noroeste 18 Oeste 0 -- -- --
2020-08-25 17:00:00 -- 7 Oeste 26 Oeste 0 -- -- --
2020-08-25 16:00:00 -- 11 Oeste 27 Oeste 0 -- -- --
2020-08-25 15:00:00 -- 9 Sudoeste 24 Sudoeste 0 -- -- --
2020-08-25 14:00:00 -- 12 Sur 36 Este 0 -- -- --
2020-08-25 13:00:00 -- 12 Este 24 Sudeste 0 -- -- --
2020-08-25 12:00:00 -- 7 Sudeste 14 Sur 0 -- -- --
2020-08-25 11:00:00 -- 3 Este 14 Sudeste 0 -- -- --
2020-08-25 10:00:00 -- 13 Sudeste 18 Sudeste 0 -- -- --
2020-08-25 09:00:00 -- 7 Este 12 Este 0 -- -- --
2020-08-25 08:00:00 -- 3 Nordeste 9 Este 0 -- -- --
2020-08-25 07:00:00 -- 4 Nordeste 7 Nordeste 0 -- -- --
2020-08-25 06:00:00 -- 5 Nordeste 9 Nordeste 0 -- -- --
2020-08-25 05:00:00 -- 5 Nordeste 9 Nordeste 0 -- -- --
2020-08-25 04:00:00 -- 3 Nordeste 8 Nordeste 0 -- -- --
2020-08-25 03:00:00 -- 3 Nordeste 7 Nordeste 0 -- -- --
2020-08-25 02:00:00 -- 5 Este 10 Este 0 -- -- --
2020-08-25 01:00:00 -- 0 Calma 9 Oeste 0 -- -- --
2020-08-25 00:00:00 -- 7 Oeste 15 Oeste 0 -- -- --
2020-08-24 23:00:00 -- 5 Noroeste 13 Sur 0 -- -- --
2020-08-24 22:00:00 -- 7 Sur 13 Sur 0 -- -- --
2020-08-24 21:00:00 -- 8 Sur 11 Sudoeste 0 -- -- --
2020-08-24 20:00:00 -- 5 Oeste 17 Sudoeste 0 -- -- --
2020-08-24 19:00:00 -- 7 Oeste 19 Sudoeste 0 -- -- --
2020-08-24 18:00:00 -- 12 Sudoeste 33 Sudoeste 0 -- -- --
2020-08-24 17:00:00 -- 4 Norte 21 Oeste 0 -- -- --
2020-08-24 16:00:00 -- 7 Oeste 33 Sudeste 0 -- -- --
2020-08-24 15:00:00 -- 7 Oeste 26 Sudoeste 0 -- -- --
2020-08-24 14:00:00 -- 8 Oeste 20 Sudoeste 0 -- -- --
2020-08-24 13:00:00 -- 3 Sudoeste 20 Oeste 0 -- -- --
2020-08-24 12:00:00 -- 6 Noroeste 21 Sudeste 0 -- -- --
2020-08-24 11:00:00 -- 7 Este 16 Sudeste 0 -- -- --
2020-08-24 10:00:00 -- 3 Nordeste 8 Nordeste 0 -- -- --
2020-08-24 09:00:00 -- 6 Nordeste 8 Nordeste 0 -- -- --
2020-08-24 08:00:00 -- 6 Nordeste 9 Nordeste 0 -- -- --
2020-08-24 07:00:00 -- 6 Nordeste 9 Nordeste 0 -- -- --
2020-08-24 06:00:00 -- 6 Nordeste 9 Nordeste 0 -- -- --
2020-08-24 05:00:00 -- 0 Calma 4 Norte 0 -- -- --
2020-08-24 04:00:00 -- 0 Calma 4 Sudoeste 0 -- -- --
2020-08-24 03:00:00 -- 4 Sudoeste 10 Oeste 0 -- -- --
2020-08-24 02:00:00 -- 7 Sudoeste 12 Oeste 0 -- -- --
2020-08-24 01:00:00 -- 10 Oeste 16 Oeste 0 -- -- --
2020-08-24 00:00:00 -- 11 Oeste 17 Oeste 0 -- -- --
2020-08-23 23:00:00 -- 12 Oeste 14 Oeste 0 -- -- --
2020-08-23 22:00:00 -- 8 Oeste 19 Oeste 0 -- -- --
2020-08-23 21:00:00 -- 10 Oeste 18 Oeste 0 -- -- --
2020-08-23 20:00:00 -- 7 Noroeste 17 Oeste 0 -- -- --
2020-08-23 19:00:00 -- 12 Noroeste 26 Noroeste 0 -- -- --
2020-08-23 18:00:00 -- 11 Noroeste 22 Norte 0 -- -- --
2020-08-23 17:00:00 -- 8 Noroeste 21 Noroeste 0 -- -- --
2020-08-23 16:00:00 -- 4 Norte 24 Oeste 0 -- -- --
2020-08-23 15:00:00 -- 7 Noroeste 25 Sudoeste 0 -- -- --
2020-08-23 14:00:00 -- 4 Norte 19 Oeste 0 -- -- --
2020-08-23 13:00:00 -- 8 Noroeste 19 Noroeste 0 -- -- --
2020-08-23 12:00:00 -- 3 Norte 10 Norte 0 -- -- --
2020-08-23 11:00:00 -- 4 Norte 9 Norte 0 -- -- --
2020-08-23 10:00:00 -- 7 Norte 11 Nordeste 0 -- -- --
2020-08-23 09:00:00 -- 5 Nordeste 9 Nordeste 0 -- -- --
2020-08-23 08:00:00 -- 5 Nordeste 6 Nordeste 0 -- -- --
2020-08-23 07:00:00 -- 2 Oeste 5 Sudoeste 0 -- -- --
2020-08-23 06:00:00 -- 5 Oeste 10 Noroeste 0 -- -- --
2020-08-23 05:00:00 -- 6 Oeste 9 Oeste 0 -- -- --
2020-08-23 04:00:00 -- 7 Oeste 10 Oeste 0 -- -- --
2020-08-23 03:00:00 -- 7 Sudoeste 8 Sudoeste 0 -- -- --
2020-08-23 02:00:00 -- 4 Norte 10 Oeste 0 -- -- --
2020-08-23 01:00:00 -- 6 Oeste 14 Oeste 0 -- -- --
2020-08-23 00:00:00 -- 11 Oeste 14 Oeste 0 -- -- --
2020-08-22 23:00:00 -- 9 Oeste 13 Oeste 0 -- -- --
2020-08-22 22:00:00 -- 6 Oeste 20 Noroeste 0 -- -- --
2020-08-22 21:00:00 -- 12 Noroeste 27 Norte 0 -- -- --
2020-08-22 20:00:00 -- 14 Noroeste 26 Noroeste 0 -- -- --
2020-08-22 19:00:00 -- 9 Noroeste 24 Noroeste 0 -- -- --
2020-08-22 18:00:00 -- 12 Noroeste 25 Noroeste 0 -- -- --
2020-08-22 17:00:00 -- 9 Noroeste 21 Noroeste 0 -- -- --
2020-08-22 16:00:00 -- 9 Noroeste 24 Noroeste 0 -- -- --
2020-08-22 15:00:00 -- 9 Oeste 52 Sudeste 0 -- -- --
2020-08-22 14:00:00 -- 4 Este 17 Noroeste 0 -- -- --
2020-08-22 13:00:00 -- 8 Noroeste 19 Noroeste 0 -- -- --
2020-08-22 12:00:00 -- 5 Norte 14 Noroeste 0 -- -- --
2020-08-22 11:00:00 -- 3 Oeste 7 Este 0 -- -- --
2020-08-22 10:00:00 -- 3 Noroeste 7 Noroeste 0 -- -- --
2020-08-22 09:00:00 -- 2 Noroeste 4 Noroeste 0 -- -- --
2020-08-22 08:00:00 -- 0 Calma 4 Noroeste 0 -- -- --
2020-08-22 07:00:00 -- 3 Oeste 5 Oeste 0 -- -- --
2020-08-22 06:00:00 -- 4 Oeste 10 Oeste 0 -- -- --
2020-08-22 05:00:00 -- 6 Oeste 10 Oeste 0 -- -- --
2020-08-22 04:00:00 -- 5 Sudoeste 10 Oeste 0 -- -- --
2020-08-22 03:00:00 -- 4 Sudoeste 9 Oeste 0 -- -- --
2020-08-22 02:00:00 -- 3 Sudoeste 5 Oeste 0 -- -- --
2020-08-22 01:00:00 -- 2 Sudoeste 13 Oeste 0 -- -- --
2020-08-22 00:00:00 -- 8 Oeste 13 Oeste 0 -- -- --
2020-08-21 23:00:00 -- 7 Oeste 26 Sudoeste 0 -- -- --
2020-08-21 22:00:00 -- 15 Sudoeste 23 Oeste 0 -- -- --
2020-08-21 21:00:00 -- 10 Sudoeste 29 Sur 0 -- -- --
2020-08-21 20:00:00 -- 21 Sudoeste 32 Sudoeste 0 -- -- --
2020-08-21 19:00:00 -- 23 Sudoeste 33 Sudoeste 0 -- -- --
2020-08-21 18:00:00 -- 15 Sudoeste 37 Sudoeste 0 -- -- --
2020-08-21 17:00:00 -- 21 Sudoeste 36 Sudoeste 0 -- -- --
2020-08-21 16:00:00 -- 16 Sudoeste 35 Sudoeste 0 -- -- --
2020-08-21 15:00:00 -- 20 Sudoeste 46 Sudoeste 0 -- -- --
2020-08-21 14:00:00 -- 11 Oeste 26 Oeste 0 -- -- --
2020-08-21 13:00:00 -- 14 Sudoeste 30 Sudoeste 0 -- -- --
2020-08-21 12:00:00 -- 10 Oeste 22 Oeste 0 -- -- --
2020-08-21 11:00:00 -- 3 Norte 9 Oeste 0 -- -- --
2020-08-21 10:00:00 -- 4 Norte 7 Noroeste 0 -- -- --
2020-08-21 09:00:00 -- 4 Nordeste 6 Norte 0 -- -- --
2020-08-21 08:00:00 -- 6 Nordeste 9 Nordeste 0 -- -- --
2020-08-21 07:00:00 -- 5 Norte 9 Norte 0 -- -- --
2020-08-21 06:00:00 -- 4 Nordeste 7 Este 0 -- -- --
2020-08-21 05:00:00 -- 4 Nordeste 5 Nordeste 0 -- -- --
2020-08-21 04:00:00 -- 2 Nordeste 9 Sudoeste 0 -- -- --
2020-08-21 03:00:00 -- 6 Sudoeste 14 Oeste 0 -- -- --
2020-08-21 02:00:00 -- 12 Oeste 14 Oeste 0 -- -- --
2020-08-21 01:00:00 -- 7 Noroeste 17 Sudoeste 0 -- -- --
2020-08-21 00:00:00 -- 13 Sudoeste 16 Sudoeste 0 -- -- --
2020-08-20 23:00:00 -- 5 Sudoeste 10 Sudoeste 0 -- -- --
2020-08-20 22:00:00 -- 5 Sur 22 Sudoeste 0 -- -- --
2020-08-20 21:00:00 -- 15 Sudoeste 32 Oeste 0 -- -- --
2020-08-20 20:00:00 -- 21 Sudoeste 40 Sudoeste 0 -- -- --
2020-08-20 19:00:00 -- 23 Sudoeste 40 Sur 0 -- -- --
2020-08-20 18:00:00 -- 24 Sudoeste 43 Sudoeste 0 -- -- --
2020-08-20 17:00:00 -- 17 Sudoeste 42 Sudeste 0 -- -- --
2020-08-20 16:00:00 -- 21 Sur 32 Sur 0 -- -- --
2020-08-20 15:00:00 -- 15 Sudoeste 32 Sudoeste 0 -- -- --
2020-08-20 14:00:00 -- 12 Sur 35 Sudoeste 0 -- -- --
2020-08-20 13:00:00 -- 17 Sur 29 Sur 0 -- -- --
2020-08-20 12:00:00 -- 13 Sudeste 23 Sudeste 0 -- -- --
2020-08-20 11:00:00 -- 10 Este 16 Sudeste 0 -- -- --
2020-08-20 10:00:00 -- 5 Este 11 Este 0 -- -- --
2020-08-20 09:00:00 -- 3 Nordeste 5 Nordeste 0 -- -- --
2020-08-20 08:00:00 -- 0 Calma 4 Nordeste 0 -- -- --
2020-08-20 07:00:00 -- 3 Sudoeste 5 Oeste 0 -- -- --
2020-08-20 06:00:00 -- 4 Oeste 6 Oeste 0 -- -- --
2020-08-20 05:00:00 -- 4 Oeste 7 Oeste 0 -- -- --
2020-08-20 04:00:00 -- 3 Sudoeste 4 Oeste 0 -- -- --
2020-08-20 03:00:00 -- 4 Oeste 9 Oeste 0 -- -- --
2020-08-20 02:00:00 -- 3 Sudoeste 13 Oeste 0 -- -- --
2020-08-20 01:00:00 -- 9 Oeste 20 Oeste 0 -- -- --
2020-08-20 00:00:00 -- 6 Sudoeste 13 Oeste 0 -- -- --
2020-08-19 23:00:00 -- 9 Noroeste 24 Oeste 0 -- -- --
2020-08-19 22:00:00 -- 11 Oeste 19 Sudoeste 0 -- -- --
2020-08-19 21:00:00 -- 14 Sudoeste 27 Sudoeste 0 -- -- --
2020-08-19 20:00:00 -- 20 Sudoeste 30 Sur 0 -- -- --
2020-08-19 19:00:00 -- 19 Sudoeste 36 Sur 0 -- -- --
2020-08-19 18:00:00 -- 16 Sudoeste 37 Sudoeste 0 -- -- --
2020-08-19 17:00:00 -- 15 Sudoeste 35 Sudoeste 0 -- -- --
2020-08-19 16:00:00 -- 17 Sur 35 Sudoeste 0 -- -- --
2020-08-19 15:00:00 -- 15 Sudoeste 32 Sur 0 -- -- --
2020-08-19 14:00:00 -- 10 Sudeste 27 Sudoeste 0 -- -- --
2020-08-19 13:00:00 -- 10 Sur 24 Sur 0 -- -- --
2020-08-19 12:00:00 -- 3 Este 14 Sudeste 0 -- -- --
2020-08-19 11:00:00 -- 3 Este 10 Sudeste 0 -- -- --
2020-08-19 10:00:00 -- 0 Calma 4 Norte 0 -- -- --
2020-08-19 09:00:00 -- 0 Calma 5 Nordeste 0 -- -- --
2020-08-19 08:00:00 -- 3 Nordeste 4 Nordeste 0 -- -- --
2020-08-19 07:00:00 -- 3 Sudoeste 5 Sudoeste 0 -- -- --
2020-08-19 06:00:00 -- 4 Sudoeste 6 Sudoeste 0 -- -- --
2020-08-19 05:00:00 -- 4 Sudoeste 5 Oeste 0 -- -- --
2020-08-19 04:00:00 -- 4 Noroeste 7 Oeste 0 -- -- --
2020-08-19 03:00:00 -- 4 Oeste 9 Oeste 0 -- -- --
2020-08-19 02:00:00 -- 5 Oeste 12 Oeste 0 -- -- --
2020-08-19 01:00:00 -- 5 Oeste 14 Oeste 0 -- -- --
2020-08-19 00:00:00 -- 11 Oeste 14 Oeste 0 -- -- --